createdAt,value
2016-08-21T00:00:34.705Z,15.42
2016-08-21T00:01:35.934Z,15.47
2016-08-21T00:02:34.488Z,15.55
2016-08-21T00:03:34.296Z,15.42
2016-08-21T00:04:35.573Z,15.49
2016-08-21T00:05:35.174Z,15.52
2016-08-21T00:06:34.989Z,15.51
2016-08-21T00:07:34.332Z,15.46
2016-08-21T00:08:35.217Z,15.51
2016-08-21T00:09:35.021Z,15.54
2016-08-21T00:10:34.184Z,15.54
2016-08-21T00:11:35.795Z,15.62
2016-08-21T00:12:35.462Z,15.54
2016-08-21T00:13:34.681Z,15.51
2016-08-21T00:14:34.905Z,15.57
2016-08-21T00:15:34.777Z,15.59
2016-08-21T00:16:34.848Z,15.62
2016-08-21T00:17:35.173Z,15.64
2016-08-21T00:18:35.869Z,15.61
2016-08-21T00:19:36.194Z,15.57
2016-08-21T00:20:34.774Z,15.57
2016-08-21T00:21:35.349Z,15.49
2016-08-21T00:22:35.240Z,15.52
2016-08-21T00:23:35.749Z,15.57
2016-08-21T00:24:34.122Z,15.54
2016-08-21T00:25:34.419Z,15.28
2016-08-21T00:26:34.150Z,15.35
2016-08-21T00:27:35.477Z,15.06
2016-08-21T00:28:35.761Z,15.03
2016-08-21T00:29:36.662Z,14.97
2016-08-21T00:30:35.144Z,14.84
2016-08-21T00:31:37.122Z,14.82
2016-08-21T00:32:35.309Z,14.77
2016-08-21T00:33:34.429Z,14.72
2016-08-21T00:34:35.200Z,14.7
2016-08-21T00:35:35.886Z,14.73
2016-08-21T00:36:36.080Z,14.72
2016-08-21T00:37:34.604Z,14.7
2016-08-21T00:38:35.098Z,14.82
2016-08-21T00:39:36.707Z,14.86
2016-08-21T00:40:35.453Z,14.86
2016-08-21T00:41:34.824Z,14.7
2016-08-21T00:42:35.095Z,14.82
2016-08-21T00:43:36.365Z,14.7
2016-08-21T00:44:36.661Z,14.66
2016-08-21T00:45:35.844Z,14.73
2016-08-21T00:46:37.212Z,14.77
2016-08-21T00:47:35.137Z,14.79
2016-08-21T00:48:34.852Z,14.85
2016-08-21T00:49:35.485Z,14.77
2016-08-21T00:50:35.177Z,14.77
2016-08-21T00:51:35.868Z,14.68
2016-08-21T00:52:34.954Z,14.72
2016-08-21T00:53:35.223Z,14.72
2016-08-21T00:54:36.089Z,14.7
2016-08-21T00:55:35.552Z,14.77
2016-08-21T00:56:36.826Z,14.65
2016-08-21T00:57:37.104Z,14.51
2016-08-21T00:58:36.514Z,14.6
2016-08-21T00:59:35.462Z,14.63
2016-08-21T01:00:35.031Z,14.58
2016-08-21T01:01:36.265Z,14.69
2016-08-21T01:02:36.538Z,14.73
2016-08-21T01:03:37.014Z,14.59
2016-08-21T01:04:35.467Z,14.73
2016-08-21T01:05:36.457Z,14.78
2016-08-21T01:06:35.980Z,14.73
2016-08-21T01:07:35.647Z,14.63
2016-08-21T01:08:37.434Z,14.65
2016-08-21T01:09:35.578Z,14.77
2016-08-21T01:10:37.909Z,14.68
2016-08-21T01:11:37.844Z,14.7
2016-08-21T01:12:37.297Z,14.77
2016-08-21T01:13:36.342Z,14.77
2016-08-21T01:14:37.305Z,14.78
2016-08-21T01:15:37.603Z,14.68
2016-08-21T01:16:37.551Z,14.72
2016-08-21T01:17:39.503Z,14.69
2016-08-21T01:18:36.546Z,14.68
2016-08-21T01:19:39.025Z,14.66
2016-08-21T01:20:36.534Z,14.68
2016-08-21T01:21:37.111Z,14.66
2016-08-21T01:22:38.295Z,14.68
2016-08-21T01:23:35.800Z,14.77
2016-08-21T01:24:36.109Z,14.73
2016-08-21T01:25:37.818Z,14.73
2016-08-21T01:26:36.546Z,14.69
2016-08-21T01:27:36.986Z,14.68
2016-08-21T01:28:36.063Z,14.65
2016-08-21T01:29:37.113Z,14.63
2016-08-21T01:30:35.626Z,14.7
2016-08-21T01:31:35.690Z,14.66
2016-08-21T01:32:36.920Z,14.63
2016-08-21T01:33:37.518Z,14.77
2016-08-21T01:34:37.330Z,14.81
2016-08-21T01:35:37.692Z,14.72
2016-08-21T01:36:36.730Z,14.86
2016-08-21T01:37:37.440Z,14.73
2016-08-21T01:38:37.341Z,14.84
2016-08-21T01:39:36.554Z,14.72
2016-08-21T01:40:36.138Z,14.84
2016-08-21T01:41:37.050Z,14.81
2016-08-21T01:42:36.913Z,14.81
2016-08-21T01:43:37.542Z,14.84
2016-08-21T01:44:37.293Z,14.84
2016-08-21T01:45:37.383Z,14.84
2016-08-21T01:46:37.119Z,14.84
2016-08-21T01:47:37.658Z,14.81
2016-08-21T01:48:37.333Z,14.7
2016-08-21T01:49:37.009Z,14.69
2016-08-21T01:50:38.618Z,14.85
2016-08-21T01:51:37.763Z,14.73
2016-08-21T01:52:37.763Z,14.84
2016-08-21T01:53:36.593Z,14.89
2016-08-21T01:54:38.157Z,14.85
2016-08-21T01:55:37.193Z,14.82
2016-08-21T01:56:37.230Z,14.91
2016-08-21T01:57:37.932Z,14.91
2016-08-21T01:58:37.927Z,14.85
2016-08-21T01:59:37.497Z,14.88
2016-08-21T02:00:37.055Z,14.92
2016-08-21T02:01:37.010Z,14.91
2016-08-21T02:02:37.199Z,14.92
2016-08-21T02:03:36.446Z,14.88
2016-08-21T02:04:37.207Z,14.92
2016-08-21T02:05:38.572Z,14.86
2016-08-21T02:06:38.075Z,14.85
2016-08-21T02:07:39.066Z,14.86
2016-08-21T02:08:36.839Z,15.02
2016-08-21T02:09:37.724Z,15
2016-08-21T02:10:37.942Z,15.02
2016-08-21T02:11:37.918Z,14.89
2016-08-21T02:12:37.730Z,14.85
2016-08-21T02:13:38.281Z,14.86
2016-08-21T02:14:37.785Z,14.91
2016-08-21T02:15:39.028Z,14.85
2016-08-21T02:16:37.755Z,14.79
2016-08-21T02:17:37.736Z,14.85
2016-08-21T02:18:37.702Z,14.66
2016-08-21T02:19:38.013Z,14.86
2016-08-21T02:20:37.867Z,14.69
2016-08-21T02:21:37.790Z,14.88
2016-08-21T02:22:39.528Z,14.85
2016-08-21T02:23:37.204Z,14.86
2016-08-21T02:24:39.205Z,14.72
2016-08-21T02:25:37.697Z,14.82
2016-08-21T02:26:38.916Z,14.85
2016-08-21T02:27:39.257Z,14.81
2016-08-21T02:28:38.737Z,14.86
2016-08-21T02:29:39.705Z,14.78
2016-08-21T02:30:38.348Z,14.84
2016-08-21T02:31:38.659Z,14.81
2016-08-21T02:32:38.641Z,14.84
2016-08-21T02:33:38.365Z,14.89
2016-08-21T02:34:37.210Z,14.92
2016-08-21T02:35:38.434Z,14.88
2016-08-21T02:36:38.342Z,14.88
2016-08-21T02:37:37.682Z,14.82
2016-08-21T02:38:38.494Z,14.85
2016-08-21T02:39:39.321Z,14.92
2016-08-21T02:40:38.099Z,14.92
2016-08-21T02:41:37.987Z,14.84
2016-08-21T02:42:37.873Z,14.77
2016-08-21T02:43:37.560Z,14.84
2016-08-21T02:44:38.409Z,14.81
2016-08-21T02:45:39.577Z,14.73
2016-08-21T02:46:38.554Z,14.86
2016-08-21T02:47:37.663Z,14.96
2016-08-21T02:48:40.346Z,14.84
2016-08-21T02:49:37.819Z,14.72
2016-08-21T02:50:40.308Z,14.69
2016-08-21T02:51:39.765Z,14.86
2016-08-21T02:52:37.976Z,14.85
2016-08-21T02:53:39.019Z,14.86
2016-08-21T02:54:39.237Z,14.86
2016-08-21T02:55:39.771Z,14.69
2016-08-21T02:56:38.016Z,14.85
2016-08-21T02:57:38.950Z,14.85
2016-08-21T02:58:39.867Z,14.82
2016-08-21T02:59:38.923Z,14.85
2016-08-21T03:00:38.237Z,14.82
2016-08-21T03:01:39.885Z,14.81
2016-08-21T03:02:40.235Z,14.7
2016-08-21T03:03:37.969Z,14.82
2016-08-21T03:04:37.982Z,14.91
2016-08-21T03:05:39.665Z,14.86
2016-08-21T03:06:40.699Z,14.89
2016-08-21T03:07:38.275Z,14.84
2016-08-21T03:08:39.419Z,14.84
2016-08-21T03:09:38.363Z,14.73
2016-08-21T03:10:38.222Z,14.69
2016-08-21T03:11:38.163Z,14.78
2016-08-21T03:12:40.035Z,14.77
2016-08-21T03:13:40.148Z,14.78
2016-08-21T03:14:39.008Z,14.85
2016-08-21T03:15:39.399Z,14.85
2016-08-21T03:16:40.117Z,14.85
2016-08-21T03:17:40.164Z,14.85
2016-08-21T03:18:39.169Z,14.86
2016-08-21T03:19:39.168Z,14.85
2016-08-21T03:20:40.173Z,14.91
2016-08-21T03:21:38.441Z,14.86
2016-08-21T03:22:39.103Z,14.91
2016-08-21T03:23:39.095Z,14.81
2016-08-21T03:24:39.771Z,14.88
2016-08-21T03:25:38.657Z,14.91
2016-08-21T03:26:39.947Z,14.92
2016-08-21T03:27:40.489Z,14.91
2016-08-21T03:28:40.557Z,14.88
2016-08-21T03:29:39.368Z,14.88
2016-08-21T03:30:40.039Z,15.04
2016-08-21T03:31:39.819Z,14.99
2016-08-21T03:32:40.122Z,15.03
2016-08-21T03:33:39.949Z,15.07
2016-08-21T03:34:39.770Z,15.06
2016-08-21T03:35:39.320Z,14.99
2016-08-21T03:36:39.536Z,14.89
2016-08-21T03:37:40.850Z,14.97
2016-08-21T03:38:40.624Z,14.97
2016-08-21T03:39:39.444Z,14.97
2016-08-21T03:40:39.899Z,14.97
2016-08-21T03:41:39.804Z,14.92
2016-08-21T03:42:40.268Z,15
2016-08-21T03:43:41.572Z,14.92
2016-08-21T03:44:39.583Z,14.96
2016-08-21T03:45:40.296Z,14.88
2016-08-21T03:46:40.925Z,14.99
2016-08-21T03:47:39.995Z,15.04
2016-08-21T03:48:41.839Z,14.99
2016-08-21T03:49:40.973Z,15.07
2016-08-21T03:50:40.003Z,15.03
2016-08-21T03:51:39.997Z,14.99
2016-08-21T03:52:39.856Z,14.94
2016-08-21T03:53:40.959Z,15.02
2016-08-21T03:54:39.405Z,15.1
2016-08-21T03:55:40.626Z,15.04
2016-08-21T03:56:41.758Z,15.06
2016-08-21T03:57:39.692Z,15.07
2016-08-21T03:58:39.369Z,14.99
2016-08-21T03:59:39.168Z,14.92
2016-08-21T04:00:40.510Z,15.03
2016-08-21T04:01:40.730Z,15.04
2016-08-21T04:02:39.412Z,14.99
2016-08-21T04:03:41.710Z,15.02
2016-08-21T04:04:39.289Z,15.06
2016-08-21T04:05:40.011Z,14.99
2016-08-21T04:06:39.641Z,15
2016-08-21T04:07:41.156Z,15.1
2016-08-21T04:08:40.348Z,14.94
2016-08-21T04:09:40.831Z,14.88
2016-08-21T04:10:40.262Z,15.02
2016-08-21T04:11:42.082Z,15.03
2016-08-21T04:12:39.962Z,14.97
2016-08-21T04:13:41.416Z,14.97
2016-08-21T04:14:39.799Z,14.92
2016-08-21T04:15:41.491Z,14.89
2016-08-21T04:16:40.592Z,14.99
2016-08-21T04:17:40.592Z,14.85
2016-08-21T04:18:40.040Z,15
2016-08-21T04:19:39.776Z,14.99
2016-08-21T04:20:40.477Z,14.89
2016-08-21T04:21:40.234Z,14.85
2016-08-21T04:22:41.453Z,14.86
2016-08-21T04:23:41.075Z,14.96
2016-08-21T04:24:41.650Z,14.88
2016-08-21T04:25:40.419Z,14.97
2016-08-21T04:26:40.835Z,14.89
2016-08-21T04:27:41.011Z,15.03
2016-08-21T04:28:40.239Z,14.99
2016-08-21T04:29:41.028Z,14.96
2016-08-21T04:30:41.414Z,14.88
2016-08-21T04:31:40.984Z,14.99
2016-08-21T04:32:41.612Z,14.99
2016-08-21T04:33:41.131Z,15
2016-08-21T04:34:40.097Z,14.97
2016-08-21T04:35:41.532Z,14.94
2016-08-21T04:36:40.693Z,14.82
2016-08-21T04:37:41.354Z,14.85
2016-08-21T04:38:40.166Z,14.88
2016-08-21T04:39:40.436Z,14.85
2016-08-21T04:40:41.942Z,14.86
2016-08-21T04:41:40.227Z,14.78
2016-08-21T04:42:40.076Z,14.7
2016-08-21T04:43:41.852Z,14.85
2016-08-21T04:44:41.558Z,14.91
2016-08-21T04:45:40.894Z,14.88
2016-08-21T04:46:41.987Z,14.88
2016-08-21T04:47:41.418Z,14.92
2016-08-21T04:48:41.270Z,14.85
2016-08-21T04:49:40.325Z,14.96
2016-08-21T04:50:45.277Z,14.92
2016-08-21T04:51:44.105Z,14.91
2016-08-21T04:52:41.940Z,15.03
2016-08-21T04:53:40.685Z,14.85
2016-08-21T04:54:41.732Z,14.89
2016-08-21T04:55:40.921Z,14.91
2016-08-21T04:56:40.577Z,15
2016-08-21T04:57:41.656Z,14.86
2016-08-21T04:58:40.831Z,15
2016-08-21T04:59:41.762Z,15.03
2016-08-21T05:00:42.276Z,14.97
2016-08-21T05:01:41.768Z,14.85
2016-08-21T05:02:41.794Z,14.79
2016-08-21T05:03:41.713Z,14.77
2016-08-21T05:04:40.935Z,14.73
2016-08-21T05:05:40.685Z,14.88
2016-08-21T05:06:42.079Z,14.94
2016-08-21T05:07:41.123Z,14.97
2016-08-21T05:08:41.908Z,14.97
2016-08-21T05:09:40.796Z,14.88
2016-08-21T05:10:43.024Z,14.97
2016-08-21T05:11:43.543Z,14.92
2016-08-21T05:12:42.003Z,14.88
2016-08-21T05:13:42.766Z,14.94
2016-08-21T05:14:42.145Z,14.89
2016-08-21T05:15:41.605Z,14.92
2016-08-21T05:16:42.566Z,14.92
2016-08-21T05:17:41.186Z,15
2016-08-21T05:18:43.252Z,14.84
2016-08-21T05:19:41.851Z,14.85
2016-08-21T05:20:42.104Z,14.89
2016-08-21T05:21:41.413Z,14.86
2016-08-21T05:22:42.981Z,14.85
2016-08-21T05:23:43.076Z,14.85
2016-08-21T05:24:42.213Z,14.88
2016-08-21T05:25:42.857Z,14.91
2016-08-21T05:26:42.474Z,14.92
2016-08-21T05:27:42.450Z,14.94
2016-08-21T05:28:43.012Z,14.89
2016-08-21T05:29:44.255Z,14.88
2016-08-21T05:30:42.946Z,15.03
2016-08-21T05:31:42.306Z,15.06
2016-08-21T05:32:43.143Z,14.99
2016-08-21T05:33:43.219Z,15.04
2016-08-21T05:34:41.813Z,15.04
2016-08-21T05:35:43.408Z,15.06
2016-08-21T05:36:42.877Z,15.17
2016-08-21T05:37:41.995Z,15.1
2016-08-21T05:38:42.714Z,15.02
2016-08-21T05:39:43.632Z,15.22
2016-08-21T05:40:42.541Z,15.21
2016-08-21T05:41:42.836Z,15.22
2016-08-21T05:42:42.480Z,15.11
2016-08-21T05:43:43.692Z,15.11
2016-08-21T05:44:44.674Z,15.24
2016-08-21T05:45:44.283Z,15.09
2016-08-21T05:46:43.434Z,15.15
2016-08-21T05:47:43.196Z,15.28
2016-08-21T05:48:43.141Z,15.31
2016-08-21T05:49:43.422Z,15.36
2016-08-21T05:50:43.439Z,15.35
2016-08-21T05:51:42.309Z,15.42
2016-08-21T05:52:42.137Z,15.39
2016-08-21T05:53:44.367Z,15.39
2016-08-21T05:54:44.864Z,15.36
2016-08-21T05:55:42.745Z,15.46
2016-08-21T05:56:41.782Z,15.51
2016-08-21T05:57:41.990Z,15.47
2016-08-21T05:58:42.712Z,15.54
2016-08-21T05:59:42.067Z,15.61
2016-08-21T06:00:43.648Z,15.62
2016-08-21T06:01:44.564Z,15.68
2016-08-21T06:02:44.488Z,15.73
2016-08-21T06:03:43.233Z,15.79
2016-08-21T06:04:42.567Z,15.75
2016-08-21T06:05:42.711Z,15.84
2016-08-21T06:06:42.580Z,15.91
2016-08-21T06:07:42.384Z,15.95
2016-08-21T06:08:44.276Z,15.97
2016-08-21T06:09:43.354Z,16.05
2016-08-21T06:10:43.584Z,16.17
2016-08-21T06:11:42.075Z,16.16
2016-08-21T06:12:42.992Z,16.38
2016-08-21T06:13:43.943Z,16.49
2016-08-21T06:14:41.820Z,16.49
2016-08-21T06:15:44.179Z,16.53
2016-08-21T06:16:44.588Z,16.66
2016-08-21T06:17:43.561Z,16.76
2016-08-21T06:18:43.574Z,16.69
2016-08-21T06:19:43.101Z,16.78
2016-08-21T06:20:43.196Z,16.94
2016-08-21T06:21:44.133Z,16.91
2016-08-21T06:22:43.954Z,16.87
2016-08-21T06:23:43.333Z,16.99
2016-08-21T06:24:44.210Z,16.99
2016-08-21T06:25:44.519Z,17.08
2016-08-21T06:26:44.400Z,17.24
2016-08-21T06:27:44.155Z,17.54
2016-08-21T06:28:44.261Z,17.7
2016-08-21T06:29:44.555Z,17.44
2016-08-21T06:30:43.376Z,17.48
2016-08-21T06:31:43.724Z,17.45
2016-08-21T06:32:44.355Z,17.51
2016-08-21T06:33:43.489Z,17.49
2016-08-21T06:34:43.441Z,17.36
2016-08-21T06:35:43.417Z,17.24
2016-08-21T06:36:43.415Z,17.44
2016-08-21T06:37:44.111Z,17.44
2016-08-21T06:38:44.189Z,17.27
2016-08-21T06:39:42.956Z,17.19
2016-08-21T06:40:44.674Z,17.27
2016-08-21T06:41:43.585Z,17.2
2016-08-21T06:42:44.935Z,17.27
2016-08-21T06:43:43.192Z,17.27
2016-08-21T06:44:44.049Z,17.64
2016-08-21T06:45:43.081Z,17.7
2016-08-21T06:46:44.324Z,17.74
2016-08-21T06:47:44.133Z,18.11
2016-08-21T06:48:44.381Z,18.19
2016-08-21T06:49:45.379Z,18.43
2016-08-21T06:50:44.793Z,18.52
2016-08-21T06:51:43.267Z,18.49
2016-08-21T06:52:44.524Z,18.35
2016-08-21T06:53:44.520Z,18.83
2016-08-21T06:54:43.409Z,18.59
2016-08-21T06:55:44.282Z,18.89
2016-08-21T06:56:44.618Z,18.8
2016-08-21T06:57:44.060Z,18.84
2016-08-21T06:58:45.258Z,18.58
2016-08-21T06:59:44.933Z,18.95
2016-08-21T07:00:44.821Z,18.9
2016-08-21T07:01:44.315Z,18.89
2016-08-21T07:02:44.194Z,18.73
2016-08-21T07:03:43.779Z,18.86
2016-08-21T07:04:45.108Z,18.99
2016-08-21T07:05:44.129Z,19.15
2016-08-21T07:06:44.983Z,18.71
2016-08-21T07:07:46.455Z,18.55
2016-08-21T07:08:44.609Z,18.44
2016-08-21T07:09:45.642Z,18.5
2016-08-21T07:10:44.459Z,18.53
2016-08-21T07:11:43.778Z,18.37
2016-08-21T07:12:44.837Z,18.37
2016-08-21T07:13:44.225Z,18.25
2016-08-21T07:14:44.191Z,18.34
2016-08-21T07:15:45.822Z,18.23
2016-08-21T07:16:44.896Z,18.43
2016-08-21T07:17:45.516Z,18.4
2016-08-21T07:18:45.391Z,18.25
2016-08-21T07:19:45.609Z,18.5
2016-08-21T07:20:44.669Z,18.25
2016-08-21T07:21:44.876Z,18.28
2016-08-21T07:22:45.258Z,18.29
2016-08-21T07:23:45.786Z,18.44
2016-08-21T07:24:45.682Z,18.28
2016-08-21T07:25:46.546Z,18.25
2016-08-21T07:26:45.135Z,18.26
2016-08-21T07:27:45.250Z,18.13
2016-08-21T07:28:44.475Z,18.2
2016-08-21T07:29:45.120Z,18.07
2016-08-21T07:30:45.210Z,18.26
2016-08-21T07:31:46.378Z,18.05
2016-08-21T07:32:45.154Z,18.08
2016-08-21T07:33:45.095Z,18.11
2016-08-21T07:34:45.610Z,18.08
2016-08-21T07:35:47.150Z,18.23
2016-08-21T07:36:46.020Z,18.47
2016-08-21T07:37:47.293Z,18.63
2016-08-21T07:38:45.577Z,18.52
2016-08-21T07:39:46.183Z,18.63
2016-08-21T07:40:45.347Z,18.73
2016-08-21T07:41:45.633Z,18.93
2016-08-21T07:42:45.585Z,18.74
2016-08-21T07:43:45.348Z,18.56
2016-08-21T07:44:45.732Z,18.93
2016-08-21T07:45:46.235Z,18.8
2016-08-21T07:46:46.263Z,18.96
2016-08-21T07:47:44.644Z,18.93
2016-08-21T07:48:45.125Z,19.02
2016-08-21T07:49:47.809Z,19.12
2016-08-21T07:50:46.096Z,19.15
2016-08-21T07:51:45.380Z,19.21
2016-08-21T07:52:45.733Z,18.93
2016-08-21T07:53:47.500Z,19.21
2016-08-21T07:54:45.617Z,19.34
2016-08-21T07:55:45.250Z,19.31
2016-08-21T07:56:46.085Z,19.34
2016-08-21T07:57:48.222Z,19.4
2016-08-21T07:58:46.958Z,19.39
2016-08-21T07:59:45.417Z,19.27
2016-08-21T08:00:45.519Z,19.4
2016-08-21T08:01:46.349Z,19.3
2016-08-21T08:02:45.867Z,19.45
2016-08-21T08:03:46.333Z,19.31
2016-08-21T08:04:46.480Z,19.39
2016-08-21T08:05:45.564Z,19.4
2016-08-21T08:06:48.198Z,19.45
2016-08-21T08:07:48.348Z,19.55
2016-08-21T08:08:46.179Z,19.47
2016-08-21T08:09:45.825Z,19.64
2016-08-21T08:10:46.660Z,19.7
2016-08-21T08:11:45.877Z,19.82
2016-08-21T08:12:47.145Z,19.85
2016-08-21T08:13:45.832Z,19.89
2016-08-21T08:14:47.892Z,20.02
2016-08-21T08:15:47.312Z,20.03
2016-08-21T08:16:45.405Z,20.03
2016-08-21T08:17:46.229Z,19.94
2016-08-21T08:18:48.050Z,20.36
2016-08-21T08:19:46.374Z,20.41
2016-08-21T08:20:49.150Z,20.74
2016-08-21T08:21:47.222Z,20.55
2016-08-21T08:22:46.067Z,20.44
2016-08-21T08:23:48.182Z,19.91
2016-08-21T08:24:47.946Z,20.44
2016-08-21T08:25:47.838Z,20.5
2016-08-21T08:26:46.934Z,20.44
2016-08-21T08:27:46.992Z,20.72
2016-08-21T08:28:46.057Z,20.87
2016-08-21T08:29:47.377Z,20.96
2016-08-21T08:30:46.678Z,20.84
2016-08-21T08:31:47.133Z,20.77
2016-08-21T08:32:47.643Z,20.6
2016-08-21T08:33:46.120Z,20.7
2016-08-21T08:34:47.596Z,20.96
2016-08-21T08:35:47.003Z,21.02
2016-08-21T08:36:47.790Z,21.02
2016-08-21T08:37:46.307Z,21.24
2016-08-21T08:38:47.911Z,21.36
2016-08-21T08:39:47.381Z,21.17
2016-08-21T08:40:47.706Z,21.09
2016-08-21T08:41:47.574Z,21.06
2016-08-21T08:42:48.631Z,21.15
2016-08-21T08:43:46.140Z,20.52
2016-08-21T08:44:48.231Z,20.41
2016-08-21T08:45:47.338Z,21.15
2016-08-21T08:46:48.235Z,21.05
2016-08-21T08:47:47.562Z,20.55
2016-08-21T08:48:47.222Z,20.97
2016-08-21T08:49:47.403Z,21.4
2016-08-21T08:50:48.051Z,21.21
2016-08-21T08:51:47.652Z,20.9
2016-08-21T08:52:46.441Z,20.93
2016-08-21T08:53:47.767Z,21.39
2016-08-21T08:54:48.022Z,21.36
2016-08-21T08:55:48.186Z,21.69
2016-08-21T08:56:47.734Z,21.64
2016-08-21T08:57:49.383Z,21.64
2016-08-21T08:58:47.277Z,21.61
2016-08-21T08:59:48.509Z,21.6
2016-08-21T09:00:48.471Z,21.32
2016-08-21T09:01:48.549Z,21.4
2016-08-21T09:02:48.578Z,21.46
2016-08-21T09:03:47.797Z,21.03
2016-08-21T09:04:47.086Z,21.27
2016-08-21T09:05:47.209Z,21.06
2016-08-21T09:06:47.912Z,21.42
2016-08-21T09:07:47.529Z,21.37
2016-08-21T09:08:48.404Z,21.14
2016-08-21T09:09:48.353Z,21.18
2016-08-21T09:10:48.481Z,21.45
2016-08-21T09:11:49.479Z,21.2
2016-08-21T09:12:48.447Z,21.42
2016-08-21T09:13:49.228Z,21.61
2016-08-21T09:14:49.144Z,21.36
2016-08-21T09:15:49.030Z,21.29
2016-08-21T09:16:47.760Z,21.12
2016-08-21T09:17:48.037Z,21.33
2016-08-21T09:18:48.994Z,21.48
2016-08-21T09:19:48.635Z,20.34
2016-08-21T09:20:48.334Z,20.13
2016-08-21T09:21:48.345Z,21
2016-08-21T09:22:47.649Z,20.74
2016-08-21T09:23:50.233Z,21.15
2016-08-21T09:24:47.797Z,21.21
2016-08-21T09:25:47.597Z,21.42
2016-08-21T09:26:48.154Z,21.93
2016-08-21T09:27:47.626Z,22.1
2016-08-21T09:28:48.427Z,22.07
2016-08-21T09:29:48.285Z,21.43
2016-08-21T09:30:48.715Z,21.69
2016-08-21T09:31:49.942Z,22.23
2016-08-21T09:32:48.583Z,22.7
2016-08-21T09:33:48.804Z,23.02
2016-08-21T09:34:49.393Z,23.41
2016-08-21T09:35:49.586Z,23.73
2016-08-21T09:36:49.134Z,23.71
2016-08-21T09:37:49.047Z,23.74
2016-08-21T09:38:49.096Z,23.88
2016-08-21T09:39:48.747Z,24.02
2016-08-21T09:40:48.822Z,23.84
2016-08-21T09:41:47.990Z,24.38
2016-08-21T09:42:48.955Z,24.03
2016-08-21T09:43:50.901Z,24.63
2016-08-21T09:44:50.466Z,24.3
2016-08-21T09:45:48.507Z,23.83
2016-08-21T09:46:48.095Z,24.17
2016-08-21T09:47:49.666Z,23.48
2016-08-21T09:48:47.568Z,23.47
2016-08-21T09:49:50.106Z,23.03
2016-08-21T09:50:48.584Z,23.27
2016-08-21T09:51:49.765Z,23.43
2016-08-21T09:52:49.865Z,23.25
2016-08-21T09:53:49.821Z,22.85
2016-08-21T09:54:49.863Z,23.25
2016-08-21T09:55:50.068Z,22.02
2016-08-21T09:56:50.432Z,22.23
2016-08-21T09:57:49.609Z,22.1
2016-08-21T09:58:50.104Z,22.38
2016-08-21T09:59:49.786Z,23.02
2016-08-21T10:00:49.601Z,23
2016-08-21T10:01:49.331Z,22.91
2016-08-21T10:02:49.929Z,22.47
2016-08-21T10:03:49.748Z,22.39
2016-08-21T10:04:49.752Z,22.32
2016-08-21T10:05:51.241Z,22.26
2016-08-21T10:06:49.813Z,22.44
2016-08-21T10:07:49.489Z,22.48
2016-08-21T10:08:48.812Z,22.59
2016-08-21T10:09:50.996Z,22.98
2016-08-21T10:10:50.295Z,22.87
2016-08-21T10:11:50.006Z,23
2016-08-21T10:12:50.364Z,22.8
2016-08-21T10:13:50.271Z,21.96
2016-08-21T10:14:50.123Z,21.75
2016-08-21T10:15:49.861Z,21.29
2016-08-21T10:16:50.163Z,20.85
2016-08-21T10:17:50.555Z,20.66
2016-08-21T10:18:50.195Z,21.14
2016-08-21T10:19:50.705Z,21.55
2016-08-21T10:20:50.461Z,21.3
2016-08-21T10:21:52.703Z,21.36
2016-08-21T10:22:50.669Z,21.17
2016-08-21T10:23:50.736Z,21.37
2016-08-21T10:24:52.049Z,21.69
2016-08-21T10:25:49.710Z,21.7
2016-08-21T10:26:51.877Z,21.58
2016-08-21T10:27:50.159Z,21.51
2016-08-21T10:28:49.924Z,21.88
2016-08-21T10:29:50.152Z,22.36
2016-08-21T10:30:50.769Z,22.75
2016-08-21T10:31:50.824Z,21.96
2016-08-21T10:32:51.034Z,21.99
2016-08-21T10:33:52.125Z,21.91
2016-08-21T10:34:50.200Z,22.26
2016-08-21T10:35:52.540Z,21.69
2016-08-21T10:36:50.754Z,22.25
2016-08-21T10:37:51.133Z,22.78
2016-08-21T10:38:50.682Z,22.9
2016-08-21T10:39:50.907Z,23
2016-08-21T10:40:50.950Z,23.2
2016-08-21T10:41:50.491Z,22.23
2016-08-21T10:42:51.182Z,22.26
2016-08-21T10:43:50.685Z,22.15
2016-08-21T10:44:52.034Z,22.04
2016-08-21T10:45:51.051Z,22.43
2016-08-21T10:46:51.876Z,21.99
2016-08-21T10:47:52.788Z,21.92
2016-08-21T10:48:51.751Z,22.75
2016-08-21T10:49:51.435Z,23.21
2016-08-21T10:50:51.064Z,22.96
2016-08-21T10:51:51.397Z,22.85
2016-08-21T10:52:51.685Z,23.05
2016-08-21T10:53:52.169Z,23.69
2016-08-21T10:54:51.006Z,24.39
2016-08-21T10:55:52.215Z,24.92
2016-08-21T10:56:51.640Z,24.76
2016-08-21T10:57:52.112Z,23.24
2016-08-21T10:58:52.368Z,24.33
2016-08-21T10:59:53.238Z,24.18
2016-08-21T11:00:51.727Z,23.99
2016-08-21T11:01:51.672Z,24.29
2016-08-21T11:02:51.036Z,24.43
2016-08-21T11:03:51.772Z,24.14
2016-08-21T11:04:51.947Z,25.26
2016-08-21T11:05:51.649Z,26.21
2016-08-21T11:06:53.804Z,25.88
2016-08-21T11:07:51.272Z,24.29
2016-08-21T11:08:51.054Z,24.57
2016-08-21T11:09:51.962Z,24.85
2016-08-21T11:10:51.880Z,24.18
2016-08-21T11:11:53.257Z,24.32
2016-08-21T11:12:53.417Z,23.17
2016-08-21T11:13:53.957Z,22.59
2016-08-21T11:14:51.023Z,22.08
2016-08-21T11:15:52.117Z,22.45
2016-08-21T11:16:51.636Z,22.88
2016-08-21T11:17:52.412Z,23.31
2016-08-21T11:18:53.049Z,23.63
2016-08-21T11:19:51.667Z,24.73
2016-08-21T11:20:52.364Z,24.86
2016-08-21T11:21:52.717Z,24.85
2016-08-21T11:22:52.589Z,23.54
2016-08-21T11:23:52.089Z,23.32
2016-08-21T11:24:52.363Z,23.65
2016-08-21T11:25:51.668Z,23.41
2016-08-21T11:26:51.181Z,23.05
2016-08-21T11:27:51.611Z,23.03
2016-08-21T11:28:53.501Z,23.28
2016-08-21T11:29:52.615Z,23.73
2016-08-21T11:30:51.827Z,25.66
2016-08-21T11:31:52.649Z,25.93
2016-08-21T11:32:52.912Z,25.99
2016-08-21T11:33:53.243Z,25.77
2016-08-21T11:34:51.931Z,25.07
2016-08-21T11:35:52.452Z,25.1
2016-08-21T11:36:52.762Z,25.17
2016-08-21T11:37:53.945Z,25.26
2016-08-21T11:38:51.768Z,25.36
2016-08-21T11:39:52.996Z,25.54
2016-08-21T11:40:53.737Z,25.14
2016-08-21T11:41:52.048Z,25.13
2016-08-21T11:42:52.551Z,26.07
2016-08-21T11:43:53.864Z,25.44
2016-08-21T11:44:53.594Z,26.29
2016-08-21T11:45:53.528Z,26.45
2016-08-21T11:46:52.878Z,25.17
2016-08-21T11:47:54.425Z,25.83
2016-08-21T11:48:52.685Z,24.65
2016-08-21T11:49:52.618Z,24.3
2016-08-21T11:50:53.437Z,24.38
2016-08-21T11:51:53.450Z,23.71
2016-08-21T11:52:53.530Z,24.06
2016-08-21T11:53:53.890Z,24.74
2016-08-21T11:54:54.348Z,26.19
2016-08-21T11:55:52.221Z,25.78
2016-08-21T11:56:54.694Z,25.26
2016-08-21T11:57:52.434Z,25.95
2016-08-21T11:58:52.309Z,25.93
2016-08-21T11:59:53.513Z,24.57
2016-08-21T12:00:54.095Z,25.14
2016-08-21T12:01:53.343Z,24.88
2016-08-21T12:02:53.437Z,25.5
2016-08-21T12:03:54.774Z,26.16
2016-08-21T12:04:53.737Z,26.36
2016-08-21T12:05:52.782Z,27.36
2016-08-21T12:06:54.013Z,25.68
2016-08-21T12:07:54.312Z,25.73
2016-08-21T12:08:54.400Z,26.99
2016-08-21T12:09:54.145Z,26.19
2016-08-21T12:10:54.108Z,26.19
2016-08-21T12:11:54.418Z,24.29
2016-08-21T12:12:54.425Z,23.81
2016-08-21T12:13:53.827Z,24.13
2016-08-21T12:14:54.444Z,24.05
2016-08-21T12:15:53.297Z,23.69
2016-08-21T12:16:53.243Z,23.32
2016-08-21T12:17:54.265Z,23.47
2016-08-21T12:18:54.006Z,24.6
2016-08-21T12:19:55.385Z,24.02
2016-08-21T12:20:54.633Z,24.66
2016-08-21T12:21:53.326Z,24.24
2016-08-21T12:22:53.878Z,23.74
2016-08-21T12:23:54.157Z,24.02
2016-08-21T12:24:54.502Z,23.09
2016-08-21T12:25:55.566Z,23.44
2016-08-21T12:26:54.129Z,23.88
2016-08-21T12:27:53.810Z,23.61
2016-08-21T12:28:53.476Z,24.01
2016-08-21T12:29:54.050Z,22.96
2016-08-21T12:30:54.109Z,22.88
2016-08-21T12:31:55.524Z,22.96
2016-08-21T12:32:55.256Z,22.85
2016-08-21T12:33:54.768Z,22.96
2016-08-21T12:34:54.659Z,23.28
2016-08-21T12:35:54.345Z,23.05
2016-08-21T12:36:54.628Z,22.3
2016-08-21T12:37:54.345Z,22.2
2016-08-21T12:38:55.127Z,21.7
2016-08-21T12:39:54.574Z,21.96
2016-08-21T12:40:54.563Z,22.29
2016-08-21T12:41:54.574Z,21.75
2016-08-21T12:42:54.311Z,21.6
2016-08-21T12:43:55.162Z,21.96
2016-08-21T12:44:55.496Z,22.26
2016-08-21T12:45:54.512Z,22.38
2016-08-21T12:46:54.712Z,22.02
2016-08-21T12:47:54.604Z,21.96
2016-08-21T12:48:54.919Z,21.46
2016-08-21T12:49:57.124Z,21.92
2016-08-21T12:50:54.632Z,21.62
2016-08-21T12:51:55.528Z,21.82
2016-08-21T12:52:55.026Z,21.48
2016-08-21T12:53:54.980Z,22.14
2016-08-21T12:54:54.354Z,22
2016-08-21T12:55:56.026Z,21.79